EGQL/ADX METAR and TAF weather

Enter ICAO airport designator
Station Type Date Time Source
EGQL METAR 2021/05/14 06:50 UTC NOAA

EGQL 140650Z 26005KT 9999 OVC038 08/06 Q1011 BLU


Station Type Date Time Source
EGQL Decoded METAR 2021/05/14 06:50 UTC NOAA

Leuchars, United Kingdom (EGQL) 56-23N 002-52W 0M
May 14, 2021 - 02:50 AM EDT / 2021.05.14 0650 UTC
Wind: from the W (260 degrees) at 6 MPH (5 KT):0
Visibility: greater than 7 mile(s):0
Sky conditions: overcast
Temperature: 46 F (8 C)
Dew Point: 42 F (6 C)
Relative Humidity: 87%
Pressure (altimeter): 29.85 in. Hg (1011 hPa)
ob: EGQL 140650Z 26005KT 9999 OVC038 08/06 Q1011 BLU
cycle: 7

Station Type Date Time Source
EGQL TAF 2011/07/27 06:03 UTC NOAA

TAF TAF
AMD EGQL 270424Z 2706/2724 14005KT 9999 BKN020 PROB30
TEMPO 2706/2708 SCT012
BECMG 2708/2710 SCT025

Example: see airport list